sensor_id;sensor_type;location;lat;lon;timestamp;pressure;altitude;pressure_sealevel;temperature;humidity
22025;BME280;11176;51.448;6.650;2022-08-21T00:01:41;45242.34;;;-141.29;78.54
22025;BME280;11176;51.448;6.650;2022-08-21T00:04:09;45254.34;;;-141.29;78.50
22025;BME280;11176;51.448;6.650;2022-08-21T00:06:40;45278.31;;;-141.29;78.95
22025;BME280;11176;51.448;6.650;2022-08-21T00:09:07;45250.34;;;-141.29;78.82
22025;BME280;11176;51.448;6.650;2022-08-21T00:11:36;45270.34;;;-141.29;79.05
22025;BME280;11176;51.448;6.650;2022-08-21T00:14:05;45264.34;;;-141.29;79.42
22025;BME280;11176;51.448;6.650;2022-08-21T00:16:32;45274.34;;;-141.29;79.99
22025;BME280;11176;51.448;6.650;2022-08-21T00:18:59;45264.34;;;-141.29;80.21
22025;BME280;11176;51.448;6.650;2022-08-21T00:21:26;45266.34;;;-141.29;80.51
22025;BME280;11176;51.448;6.650;2022-08-21T00:23:52;45266.34;;;-141.29;80.48
22025;BME280;11176;51.448;6.650;2022-08-21T00:26:19;45264.34;;;-141.29;80.55
22025;BME280;11176;51.448;6.650;2022-08-21T00:28:45;45252.34;;;-141.29;80.70
22025;BME280;11176;51.448;6.650;2022-08-21T00:31:12;45278.31;;;-141.29;80.68
22025;BME280;11176;51.448;6.650;2022-08-21T00:33:39;45282.31;;;-141.29;81.07
22025;BME280;11176;51.448;6.650;2022-08-21T00:36:06;45292.31;;;-141.29;81.09
22025;BME280;11176;51.448;6.650;2022-08-21T00:38:33;45270.34;;;-141.29;81.43
22025;BME280;11176;51.448;6.650;2022-08-21T00:41:03;45260.34;;;-141.29;81.85
22025;BME280;11176;51.448;6.650;2022-08-21T00:43:50;45284.31;;;-141.29;82.37
22025;BME280;11176;51.448;6.650;2022-08-21T00:46:17;45290.31;;;-141.29;82.68
22025;BME280;11176;51.448;6.650;2022-08-21T00:48:44;45286.31;;;-141.29;82.94
22025;BME280;11176;51.448;6.650;2022-08-21T00:51:17;45294.31;;;-141.29;83.50
22025;BME280;11176;51.448;6.650;2022-08-21T00:53:53;45266.34;;;-141.29;83.74
22025;BME280;11176;51.448;6.650;2022-08-21T00:56:21;45282.31;;;-141.29;84.16
22025;BME280;11176;51.448;6.650;2022-08-21T00:58:52;45290.31;;;-141.29;84.55
22025;BME280;11176;51.448;6.650;2022-08-21T01:01:21;45286.31;;;-141.29;84.79
22025;BME280;11176;51.448;6.650;2022-08-21T01:03:48;45266.34;;;-141.29;85.26
22025;BME280;11176;51.448;6.650;2022-08-21T01:06:15;45266.34;;;-141.29;85.41
22025;BME280;11176;51.448;6.650;2022-08-21T01:08:42;45290.31;;;-141.29;85.53
22025;BME280;11176;51.448;6.650;2022-08-21T01:11:14;45314.28;;;-141.29;85.81
22025;BME280;11176;51.448;6.650;2022-08-21T01:13:41;45278.31;;;-141.29;85.83
22025;BME280;11176;51.448;6.650;2022-08-21T01:16:14;45276.34;;;-141.29;85.55
22025;BME280;11176;51.448;6.650;2022-08-21T01:18:42;45308.31;;;-141.29;85.79
22025;BME280;11176;51.448;6.650;2022-08-21T01:21:15;45290.31;;;-141.29;86.07
22025;BME280;11176;51.448;6.650;2022-08-21T01:23:47;45294.31;;;-141.29;86.03
22025;BME280;11176;51.448;6.650;2022-08-21T01:26:17;45286.31;;;-141.29;86.25
22025;BME280;11176;51.448;6.650;2022-08-21T01:29:09;45306.31;;;-141.29;86.35
22025;BME280;11176;51.448;6.650;2022-08-21T01:31:33;45298.31;;;-141.29;86.63
22025;BME280;11176;51.448;6.650;2022-08-21T01:34:00;45290.31;;;-141.29;86.85
22025;BME280;11176;51.448;6.650;2022-08-21T01:36:27;45294.31;;;-141.29;87.10
22025;BME280;11176;51.448;6.650;2022-08-21T01:38:54;45310.31;;;-141.29;87.14
22025;BME280;11176;51.448;6.650;2022-08-21T01:41:21;45304.31;;;-141.29;87.54
22025;BME280;11176;51.448;6.650;2022-08-21T01:43:48;45314.28;;;-141.29;87.65
22025;BME280;11176;51.448;6.650;2022-08-21T01:46:15;45294.31;;;-141.29;87.84
22025;BME280;11176;51.448;6.650;2022-08-21T01:48:42;45314.28;;;-141.29;88.00
22025;BME280;11176;51.448;6.650;2022-08-21T01:51:09;45290.31;;;-141.29;88.04
22025;BME280;11176;51.448;6.650;2022-08-21T01:53:36;45314.28;;;-141.29;87.89
22025;BME280;11176;51.448;6.650;2022-08-21T01:56:05;45302.31;;;-141.29;88.22
22025;BME280;11176;51.448;6.650;2022-08-21T01:58:40;45294.31;;;-141.29;88.24
22025;BME280;11176;51.448;6.650;2022-08-21T02:01:07;45298.31;;;-141.29;88.47
22025;BME280;11176;51.448;6.650;2022-08-21T02:03:36;45292.31;;;-141.29;88.78
22025;BME280;11176;51.448;6.650;2022-08-21T02:06:06;45308.31;;;-141.29;88.89
22025;BME280;11176;51.448;6.650;2022-08-21T02:08:34;45322.28;;;-141.29;89.16
22025;BME280;11176;51.448;6.650;2022-08-21T02:11:00;45302.31;;;-141.29;89.32
22025;BME280;11176;51.448;6.650;2022-08-21T02:13:27;45318.28;;;-141.29;89.36
22025;BME280;11176;51.448;6.650;2022-08-21T02:15:54;45318.28;;;-141.29;89.75
22025;BME280;11176;51.448;6.650;2022-08-21T02:18:20;45310.31;;;-141.29;89.82
22025;BME280;11176;51.448;6.650;2022-08-21T02:20:48;45314.28;;;-141.29;89.94
22025;BME280;11176;51.448;6.650;2022-08-21T02:23:22;45314.28;;;-141.29;90.21
22025;BME280;11176;51.448;6.650;2022-08-21T02:25:54;45318.28;;;-141.29;90.24
22025;BME280;11176;51.448;6.650;2022-08-21T02:28:20;45312.31;;;-141.29;90.67
22025;BME280;11176;51.448;6.650;2022-08-21T02:30:48;45318.28;;;-141.29;90.63
22025;BME280;11176;51.448;6.650;2022-08-21T02:33:16;45304.31;;;-141.29;90.80
22025;BME280;11176;51.448;6.650;2022-08-21T02:35:44;45314.28;;;-141.29;90.56
22025;BME280;11176;51.448;6.650;2022-08-21T02:38:14;45310.31;;;-141.29;90.49
22025;BME280;11176;51.448;6.650;2022-08-21T02:40:43;45342.28;;;-141.29;90.69
22025;BME280;11176;51.448;6.650;2022-08-21T02:43:14;45314.28;;;-141.29;90.85
22025;BME280;11176;51.448;6.650;2022-08-21T02:45:43;45310.31;;;-141.29;91.01
22025;BME280;11176;51.448;6.650;2022-08-21T02:48:12;45314.28;;;-141.29;91.20
22025;BME280;11176;51.448;6.650;2022-08-21T02:50:52;45312.31;;;-141.29;91.38
22025;BME280;11176;51.448;6.650;2022-08-21T02:53:19;45322.28;;;-141.29;91.54
22025;BME280;11176;51.448;6.650;2022-08-21T02:55:48;45310.31;;;-141.29;91.87
22025;BME280;11176;51.448;6.650;2022-08-21T02:58:17;45318.28;;;-141.29;92.00
22025;BME280;11176;51.448;6.650;2022-08-21T03:00:45;45314.28;;;-141.29;92.23
22025;BME280;11176;51.448;6.650;2022-08-21T03:03:12;45322.28;;;-141.29;92.19
22025;BME280;11176;51.448;6.650;2022-08-21T03:05:40;45322.28;;;-141.29;92.23
22025;BME280;11176;51.448;6.650;2022-08-21T03:08:09;45324.28;;;-141.29;92.47
22025;BME280;11176;51.448;6.650;2022-08-21T03:10:39;45314.28;;;-141.29;92.18
22025;BME280;11176;51.448;6.650;2022-08-21T03:13:07;45322.28;;;-141.29;92.29
22025;BME280;11176;51.448;6.650;2022-08-21T03:15:34;45326.28;;;-141.29;92.31
22025;BME280;11176;51.448;6.650;2022-08-21T03:18:01;45328.28;;;-141.29;92.34
22025;BME280;11176;51.448;6.650;2022-08-21T03:20:28;45314.28;;;-141.29;92.32
22025;BME280;11176;51.448;6.650;2022-08-21T03:22:55;45324.28;;;-141.29;92.26
22025;BME280;11176;51.448;6.650;2022-08-21T03:25:24;45328.28;;;-141.29;92.40
22025;BME280;11176;51.448;6.650;2022-08-21T03:28:09;45334.28;;;-141.29;92.54
22025;BME280;11176;51.448;6.650;2022-08-21T03:30:43;45334.28;;;-141.29;92.82
22025;BME280;11176;51.448;6.650;2022-08-21T03:33:10;45318.28;;;-141.29;92.99
22025;BME280;11176;51.448;6.650;2022-08-21T03:35:42;45320.28;;;-141.29;93.26
22025;BME280;11176;51.448;6.650;2022-08-21T03:38:09;45334.28;;;-141.29;93.36
22025;BME280;11176;51.448;6.650;2022-08-21T03:40:39;45326.28;;;-141.29;93.28
22025;BME280;11176;51.448;6.650;2022-08-21T03:43:05;45326.28;;;-141.29;93.33
22025;BME280;11176;51.448;6.650;2022-08-21T03:45:35;45322.28;;;-141.29;93.34
22025;BME280;11176;51.448;6.650;2022-08-21T03:48:03;45334.28;;;-141.29;93.29
22025;BME280;11176;51.448;6.650;2022-08-21T03:50:32;45326.28;;;-141.29;93.24
22025;BME280;11176;51.448;6.650;2022-08-21T03:53:00;45322.28;;;-141.29;93.17
22025;BME280;11176;51.448;6.650;2022-08-21T03:55:27;45338.28;;;-141.29;93.36
22025;BME280;11176;51.448;6.650;2022-08-21T03:57:54;45328.28;;;-141.29;93.48
22025;BME280;11176;51.448;6.650;2022-08-21T04:00:20;45324.28;;;-141.29;93.51
22025;BME280;11176;51.448;6.650;2022-08-21T04:02:47;45332.28;;;-141.29;93.60
22025;BME280;11176;51.448;6.650;2022-08-21T04:05:15;45332.28;;;-141.29;93.84
22025;BME280;11176;51.448;6.650;2022-08-21T04:07:55;45342.28;;;-141.29;94.03
22025;BME280;11176;51.448;6.650;2022-08-21T04:10:22;45334.28;;;-141.29;94.01
22025;BME280;11176;51.448;6.650;2022-08-21T04:12:51;45326.28;;;-141.29;94.00
22025;BME280;11176;51.448;6.650;2022-08-21T04:15:18;45354.25;;;-141.29;94.17
22025;BME280;11176;51.448;6.650;2022-08-21T04:17:45;45340.28;;;-141.29;94.67
22025;BME280;11176;51.448;6.650;2022-08-21T04:20:11;45322.28;;;-141.29;94.59
22025;BME280;11176;51.448;6.650;2022-08-21T04:22:38;45342.28;;;-141.29;95.09
22025;BME280;11176;51.448;6.650;2022-08-21T04:25:06;45334.28;;;-141.29;95.35
22025;BME280;11176;51.448;6.650;2022-08-21T04:27:34;45338.28;;;-141.29;95.91
22025;BME280;11176;51.448;6.650;2022-08-21T04:30:00;45328.28;;;-141.29;96.18
22025;BME280;11176;51.448;6.650;2022-08-21T04:32:27;45350.28;;;-141.29;96.73
22025;BME280;11176;51.448;6.650;2022-08-21T04:35:02;45330.28;;;-141.29;96.65
22025;BME280;11176;51.448;6.650;2022-08-21T04:37:30;45342.28;;;-141.29;96.75
22025;BME280;11176;51.448;6.650;2022-08-21T04:39:57;45338.28;;;-141.29;96.62
22025;BME280;11176;51.448;6.650;2022-08-21T04:42:25;45338.28;;;-141.29;96.67
22025;BME280;11176;51.448;6.650;2022-08-21T04:44:52;45324.28;;;-141.29;96.72
22025;BME280;11176;51.448;6.650;2022-08-21T04:47:18;45326.28;;;-141.29;96.52
22025;BME280;11176;51.448;6.650;2022-08-21T04:49:45;45334.28;;;-141.29;96.36
22025;BME280;11176;51.448;6.650;2022-08-21T04:52:13;45334.28;;;-141.29;96.69
22025;BME280;11176;51.448;6.650;2022-08-21T04:54:42;45326.28;;;-141.29;96.82
22025;BME280;11176;51.448;6.650;2022-08-21T04:57:11;45342.28;;;-141.29;96.95
22025;BME280;11176;51.448;6.650;2022-08-21T04:59:42;45322.28;;;-141.29;96.89
22025;BME280;11176;51.448;6.650;2022-08-21T05:02:10;45318.28;;;-141.29;97.05
22025;BME280;11176;51.448;6.650;2022-08-21T05:04:43;45338.28;;;-141.29;97.36
22025;BME280;11176;51.448;6.650;2022-08-21T05:07:15;45338.28;;;-141.29;97.56
22025;BME280;11176;51.448;6.650;2022-08-21T05:10:03;45322.28;;;-141.29;97.77
22025;BME280;11176;51.448;6.650;2022-08-21T05:12:31;45326.28;;;-141.29;97.61
22025;BME280;11176;51.448;6.650;2022-08-21T05:14:58;45342.28;;;-141.29;97.51
22025;BME280;11176;51.448;6.650;2022-08-21T05:17:24;45340.28;;;-141.29;96.92
22025;BME280;11176;51.448;6.650;2022-08-21T05:19:50;45346.28;;;-141.29;96.47
22025;BME280;11176;51.448;6.650;2022-08-21T05:22:23;45320.28;;;-141.29;94.81
22025;BME280;11176;51.448;6.650;2022-08-21T05:24:51;45336.28;;;-141.29;94.41
22025;BME280;11176;51.448;6.650;2022-08-21T05:27:18;45322.28;;;-141.29;92.84
22025;BME280;11176;51.448;6.650;2022-08-21T05:29:45;45334.28;;;-141.29;91.89
22025;BME280;11176;51.448;6.650;2022-08-21T05:32:13;45314.28;;;-141.29;91.31
22025;BME280;11176;51.448;6.650;2022-08-21T05:34:41;45322.28;;;-141.29;90.80
22025;BME280;11176;51.448;6.650;2022-08-21T05:37:10;45318.28;;;-141.29;89.76
22025;BME280;11176;51.448;6.650;2022-08-21T05:39:36;45338.28;;;-141.29;88.83
22025;BME280;11176;51.448;6.650;2022-08-21T05:42:23;45322.28;;;-141.29;88.25
22025;BME280;11176;51.448;6.650;2022-08-21T05:44:49;45318.28;;;-141.29;87.65
22025;BME280;11176;51.448;6.650;2022-08-21T05:47:16;45306.31;;;-141.29;87.54
22025;BME280;11176;51.448;6.650;2022-08-21T05:49:42;45330.28;;;-141.29;87.49
22025;BME280;11176;51.448;6.650;2022-08-21T05:52:09;45318.28;;;-141.29;86.57
22025;BME280;11176;51.448;6.650;2022-08-21T05:54:37;45332.28;;;-141.29;86.15
22025;BME280;11176;51.448;6.650;2022-08-21T05:57:03;45316.28;;;-141.29;85.86
22025;BME280;11176;51.448;6.650;2022-08-21T05:59:30;45326.28;;;-141.29;85.76
22025;BME280;11176;51.448;6.650;2022-08-21T06:01:56;45318.28;;;-141.29;85.06
22025;BME280;11176;51.448;6.650;2022-08-21T06:04:29;45316.28;;;-141.29;84.61
22025;BME280;11176;51.448;6.650;2022-08-21T06:06:56;45316.28;;;-141.29;84.04
22025;BME280;11176;51.448;6.650;2022-08-21T06:09:22;45330.28;;;-141.29;84.02
22025;BME280;11176;51.448;6.650;2022-08-21T06:11:48;45338.28;;;-141.29;84.00
22025;BME280;11176;51.448;6.650;2022-08-21T06:14:15;45316.28;;;-141.29;83.83
22025;BME280;11176;51.448;6.650;2022-08-21T06:16:42;45322.28;;;-141.29;83.62
22025;BME280;11176;51.448;6.650;2022-08-21T06:19:09;45302.31;;;-141.29;83.05
22025;BME280;11176;51.448;6.650;2022-08-21T06:21:35;45302.31;;;-141.29;82.55
22025;BME280;11176;51.448;6.650;2022-08-21T06:24:02;45316.28;;;-141.29;82.46
22025;BME280;11176;51.448;6.650;2022-08-21T06:26:28;45306.31;;;-141.29;81.89
22025;BME280;11176;51.448;6.650;2022-08-21T06:28:55;45316.28;;;-141.29;81.52
22025;BME280;11176;51.448;6.650;2022-08-21T06:31:23;45302.31;;;-141.29;81.25
22025;BME280;11176;51.448;6.650;2022-08-21T06:33:51;45292.31;;;-141.29;80.77
22025;BME280;11176;51.448;6.650;2022-08-21T06:36:18;45306.31;;;-141.29;80.23
22025;BME280;11176;51.448;6.650;2022-08-21T06:38:47;45294.31;;;-141.29;79.90
22025;BME280;11176;51.448;6.650;2022-08-21T06:41:18;45292.31;;;-141.29;79.07
22025;BME280;11176;51.448;6.650;2022-08-21T06:43:52;45306.31;;;-141.29;78.94
22025;BME280;11176;51.448;6.650;2022-08-21T06:46:18;45306.31;;;-141.29;78.54
22025;BME280;11176;51.448;6.650;2022-08-21T06:48:45;45302.31;;;-141.29;78.28
22025;BME280;11176;51.448;6.650;2022-08-21T06:51:11;45298.31;;;-141.29;77.68
22025;BME280;11176;51.448;6.650;2022-08-21T06:53:38;45304.31;;;-141.29;78.06
22025;BME280;11176;51.448;6.650;2022-08-21T06:56:05;45300.31;;;-141.29;77.74
22025;BME280;11176;51.448;6.650;2022-08-21T06:58:31;45290.31;;;-141.29;77.57
22025;BME280;11176;51.448;6.650;2022-08-21T07:00:58;45302.31;;;-141.29;77.31
22025;BME280;11176;51.448;6.650;2022-08-21T07:03:31;45288.31;;;-141.29;77.64
22025;BME280;11176;51.448;6.650;2022-08-21T07:05:58;45306.31;;;-141.29;77.24
22025;BME280;11176;51.448;6.650;2022-08-21T07:08:25;45286.31;;;-141.29;76.90
22025;BME280;11176;51.448;6.650;2022-08-21T07:10:55;45286.31;;;-141.29;75.64
22025;BME280;11176;51.448;6.650;2022-08-21T07:13:21;45298.31;;;-141.29;75.88
22025;BME280;11176;51.448;6.650;2022-08-21T07:15:48;45290.31;;;-141.29;75.54
22025;BME280;11176;51.448;6.650;2022-08-21T07:18:14;45290.31;;;-141.29;75.21
22025;BME280;11176;51.448;6.650;2022-08-21T07:20:41;45282.31;;;-141.29;73.78
22025;BME280;11176;51.448;6.650;2022-08-21T07:23:29;45282.31;;;-141.29;73.56
22025;BME280;11176;51.448;6.650;2022-08-21T07:25:56;45268.34;;;-141.29;71.75
22025;BME280;11176;51.448;6.650;2022-08-21T07:28:23;45278.31;;;-141.29;72.23
22025;BME280;11176;51.448;6.650;2022-08-21T07:30:51;45294.31;;;-141.29;72.02
22025;BME280;11176;51.448;6.650;2022-08-21T07:33:18;45290.31;;;-141.29;71.84
22025;BME280;11176;51.448;6.650;2022-08-21T07:35:45;45296.31;;;-141.29;71.91
22025;BME280;11176;51.448;6.650;2022-08-21T07:38:11;45282.31;;;-141.29;72.18
22025;BME280;11176;51.448;6.650;2022-08-21T07:40:38;45278.31;;;-141.29;72.02
22025;BME280;11176;51.448;6.650;2022-08-21T07:43:05;45278.31;;;-141.29;71.78
22025;BME280;11176;51.448;6.650;2022-08-21T07:45:32;45270.34;;;-141.29;71.57
22025;BME280;11176;51.448;6.650;2022-08-21T07:47:58;45280.31;;;-141.29;71.39
22025;BME280;11176;51.448;6.650;2022-08-21T07:50:25;45276.34;;;-141.29;70.32
22025;BME280;11176;51.448;6.650;2022-08-21T07:52:52;45270.34;;;-141.29;70.46
22025;BME280;11176;51.448;6.650;2022-08-21T07:55:20;45278.31;;;-141.29;69.91
22025;BME280;11176;51.448;6.650;2022-08-21T07:57:48;45266.34;;;-141.29;69.38
22025;BME280;11176;51.448;6.650;2022-08-21T08:00:18;45272.34;;;-141.29;69.17
22025;BME280;11176;51.448;6.650;2022-08-21T08:02:49;45272.34;;;-141.29;68.62
22025;BME280;11176;51.448;6.650;2022-08-21T08:05:18;45266.34;;;-141.29;68.66
22025;BME280;11176;51.448;6.650;2022-08-21T08:07:45;45282.31;;;-141.29;67.20
22025;BME280;11176;51.448;6.650;2022-08-21T08:10:11;45262.34;;;-141.29;67.04
22025;BME280;11176;51.448;6.650;2022-08-21T08:12:39;45278.31;;;-141.29;65.89
22025;BME280;11176;51.448;6.650;2022-08-21T08:15:09;45266.34;;;-141.29;65.80
22025;BME280;11176;51.448;6.650;2022-08-21T08:17:36;45282.31;;;-141.29;65.64
22025;BME280;11176;51.448;6.650;2022-08-21T08:20:06;45258.34;;;-141.29;65.58
22025;BME280;11176;51.448;6.650;2022-08-21T08:22:34;45250.34;;;-141.29;66.35
22025;BME280;11176;51.448;6.650;2022-08-21T08:25:01;45262.34;;;-141.29;65.93
22025;BME280;11176;51.448;6.650;2022-08-21T08:27:34;45254.34;;;-141.29;65.90
22025;BME280;11176;51.448;6.650;2022-08-21T08:30:01;45262.34;;;-141.29;65.73
22025;BME280;11176;51.448;6.650;2022-08-21T08:32:27;45258.34;;;-141.29;65.56
22025;BME280;11176;51.448;6.650;2022-08-21T08:34:54;45240.34;;;-141.29;66.07
22025;BME280;11176;51.448;6.650;2022-08-21T08:37:20;45260.34;;;-141.29;65.59
22025;BME280;11176;51.448;6.650;2022-08-21T08:39:50;45250.34;;;-141.29;65.48
22025;BME280;11176;51.448;6.650;2022-08-21T08:42:34;45250.34;;;-141.29;65.37
22025;BME280;11176;51.448;6.650;2022-08-21T08:45:12;45254.34;;;-141.29;64.78
22025;BME280;11176;51.448;6.650;2022-08-21T08:47:43;45260.34;;;-141.29;63.94
22025;BME280;11176;51.448;6.650;2022-08-21T08:50:19;45256.34;;;-141.29;64.00
22025;BME280;11176;51.448;6.650;2022-08-21T08:52:48;45234.38;;;-141.29;63.55
22025;BME280;11176;51.448;6.650;2022-08-21T08:55:28;45246.34;;;-141.29;63.70
22025;BME280;11176;51.448;6.650;2022-08-21T08:57:57;45252.34;;;-141.29;63.37
22025;BME280;11176;51.448;6.650;2022-08-21T09:00:24;45226.38;;;-141.29;63.35
22025;BME280;11176;51.448;6.650;2022-08-21T09:02:58;45246.34;;;-141.29;63.28
22025;BME280;11176;51.448;6.650;2022-08-21T09:05:45;45236.38;;;-141.29;63.90
22025;BME280;11176;51.448;6.650;2022-08-21T09:11:05;45242.34;;;-141.29;62.92
22025;BME280;11176;51.448;6.650;2022-08-21T09:13:45;45236.38;;;-141.29;62.86
22025;BME280;11176;51.448;6.650;2022-08-21T09:16:46;45238.38;;;-141.29;62.92
22025;BME280;11176;51.448;6.650;2022-08-21T09:22:23;45250.34;;;-141.29;61.73
22025;BME280;11176;51.448;6.650;2022-08-21T09:27:21;45230.38;;;-141.29;61.89
22025;BME280;11176;51.448;6.650;2022-08-21T09:29:51;45234.38;;;-141.29;61.92
22025;BME280;11176;51.448;6.650;2022-08-21T09:32:24;45230.38;;;-141.29;61.43
22025;BME280;11176;51.448;6.650;2022-08-21T09:35:16;45228.38;;;-141.29;60.07
22025;BME280;11176;51.448;6.650;2022-08-21T09:37:54;45222.38;;;-141.29;59.47
22025;BME280;11176;51.448;6.650;2022-08-21T09:40:31;45230.38;;;-141.29;60.07
22025;BME280;11176;51.448;6.650;2022-08-21T09:43:02;45206.38;;;-141.29;60.24
22025;BME280;11176;51.448;6.650;2022-08-21T09:45:30;45226.38;;;-141.29;59.27
22025;BME280;11176;51.448;6.650;2022-08-21T09:48:28;45228.38;;;-141.29;59.30
22025;BME280;11176;51.448;6.650;2022-08-21T09:51:07;45216.38;;;-141.29;59.23
22025;BME280;11176;51.448;6.650;2022-08-21T09:53:39;45232.38;;;-141.29;58.99
22025;BME280;11176;51.448;6.650;2022-08-21T09:59:14;45210.38;;;-141.29;55.43
22025;BME280;11176;51.448;6.650;2022-08-21T10:01:47;45210.38;;;-141.29;55.18
22025;BME280;11176;51.448;6.650;2022-08-21T10:04:14;45224.38;;;-141.29;55.66
22025;BME280;11176;51.448;6.650;2022-08-21T10:06:41;45218.38;;;-141.29;56.21
22025;BME280;11176;51.448;6.650;2022-08-21T10:20:16;45206.38;;;-141.29;55.02
22025;BME280;11176;51.448;6.650;2022-08-21T10:23:28;45200.41;;;-141.29;54.91
22025;BME280;11176;51.448;6.650;2022-08-21T10:28:49;45182.41;;;-141.29;51.86
22025;BME280;11176;51.448;6.650;2022-08-21T10:31:31;45196.41;;;-141.29;50.87
22025;BME280;11176;51.448;6.650;2022-08-21T10:42:33;45198.41;;;-141.29;49.25
22025;BME280;11176;51.448;6.650;2022-08-21T10:45:07;45186.41;;;-141.29;51.33
22025;BME280;11176;51.448;6.650;2022-08-21T10:47:47;45174.41;;;-141.29;53.49
22025;BME280;11176;51.448;6.650;2022-08-21T10:50:39;45182.41;;;-141.29;54.78
22025;BME280;11176;51.448;6.650;2022-08-21T10:53:36;45176.41;;;-141.29;51.61
22025;BME280;11176;51.448;6.650;2022-08-21T10:56:13;45186.41;;;-141.29;49.48
22025;BME280;11176;51.448;6.650;2022-08-21T10:58:49;45182.41;;;-141.29;48.83
22025;BME280;11176;51.448;6.650;2022-08-21T11:01:31;45170.41;;;-141.29;46.90
22025;BME280;11176;51.448;6.650;2022-08-21T11:04:20;45174.41;;;-141.29;46.11
22025;BME280;11176;51.448;6.650;2022-08-21T11:06:50;45180.41;;;-141.29;46.73
22025;BME280;11176;51.448;6.650;2022-08-21T11:09:22;45198.41;;;-141.29;47.16
22025;BME280;11176;51.448;6.650;2022-08-21T11:11:56;45170.41;;;-141.29;45.79
22025;BME280;11176;51.448;6.650;2022-08-21T11:14:54;45162.44;;;-141.29;45.96
22025;BME280;11176;51.448;6.650;2022-08-21T11:17:30;45154.44;;;-141.29;46.30
22025;BME280;11176;51.448;6.650;2022-08-21T11:20:08;45154.44;;;-141.29;45.13
22025;BME280;11176;51.448;6.650;2022-08-21T11:22:41;45154.44;;;-141.29;44.64
22025;BME280;11176;51.448;6.650;2022-08-21T11:25:21;45154.44;;;-141.29;43.14
22025;BME280;11176;51.448;6.650;2022-08-21T11:27:54;45134.44;;;-141.29;42.21
22025;BME280;11176;51.448;6.650;2022-08-21T11:30:28;45134.44;;;-141.29;41.15
22025;BME280;11176;51.448;6.650;2022-08-21T11:33:09;45114.47;;;-141.29;41.25
22025;BME280;11176;51.448;6.650;2022-08-21T11:35:58;45114.47;;;-141.29;41.12
22025;BME280;11176;51.448;6.650;2022-08-21T11:38:41;45088.50;;;-141.29;37.98
22025;BME280;11176;51.448;6.650;2022-08-21T11:41:20;45094.50;;;-141.29;37.16
22025;BME280;11176;51.448;6.650;2022-08-21T11:46:29;45082.50;;;-141.29;36.88
22025;BME280;11176;51.448;6.650;2022-08-21T11:49:10;45062.50;;;-141.29;36.00
22025;BME280;11176;51.448;6.650;2022-08-21T11:54:37;45046.53;;;-141.29;33.92
22025;BME280;11176;51.448;6.650;2022-08-21T12:02:51;45030.53;;;-141.29;32.71
22025;BME280;11176;51.448;6.650;2022-08-21T12:05:26;45026.53;;;-141.29;30.39
22025;BME280;11176;51.448;6.650;2022-08-21T12:08:27;45026.53;;;-141.29;31.12
22025;BME280;11176;51.448;6.650;2022-08-21T12:14:00;45026.53;;;-141.29;30.61
22025;BME280;11176;51.448;6.650;2022-08-21T12:19:08;45022.56;;;-141.29;30.80
22025;BME280;11176;51.448;6.650;2022-08-21T12:21:52;45026.53;;;-141.29;31.04
22025;BME280;11176;51.448;6.650;2022-08-21T12:24:33;45026.53;;;-141.29;30.32
22025;BME280;11176;51.448;6.650;2022-08-21T12:27:21;45026.53;;;-141.29;30.62
22025;BME280;11176;51.448;6.650;2022-08-21T12:29:55;45026.53;;;-141.29;29.60
22025;BME280;11176;51.448;6.650;2022-08-21T12:35:15;45042.53;;;-141.29;29.96
22025;BME280;11176;51.448;6.650;2022-08-21T12:38:18;45038.53;;;-141.29;30.12
22025;BME280;11176;51.448;6.650;2022-08-21T12:43:21;45050.53;;;-141.29;30.46
22025;BME280;11176;51.448;6.650;2022-08-21T12:45:52;45032.53;;;-141.29;30.47
22025;BME280;11176;51.448;6.650;2022-08-21T12:51:06;45014.56;;;-141.29;29.88
22025;BME280;11176;51.448;6.650;2022-08-21T12:53:41;45026.53;;;-141.29;29.46
22025;BME280;11176;51.448;6.650;2022-08-21T12:56:13;45030.53;;;-141.29;29.07
22025;BME280;11176;51.448;6.650;2022-08-21T12:58:43;45012.56;;;-141.29;28.78
22025;BME280;11176;51.448;6.650;2022-08-21T13:01:25;45026.53;;;-141.29;29.17
22025;BME280;11176;51.448;6.650;2022-08-21T13:03:54;45006.56;;;-141.29;29.34
22025;BME280;11176;51.448;6.650;2022-08-21T13:06:42;45016.56;;;-141.29;29.17
22025;BME280;11176;51.448;6.650;2022-08-21T13:09:13;45010.56;;;-141.29;29.05
22025;BME280;11176;51.448;6.650;2022-08-21T13:11:43;44998.56;;;-141.29;29.10
22025;BME280;11176;51.448;6.650;2022-08-21T13:14:23;44986.59;;;-141.29;29.26
22025;BME280;11176;51.448;6.650;2022-08-21T13:16:54;44990.59;;;-141.29;28.87
22025;BME280;11176;51.448;6.650;2022-08-21T13:19:21;44978.59;;;-141.29;28.52
22025;BME280;11176;51.448;6.650;2022-08-21T13:21:50;44982.59;;;-141.29;27.90
22025;BME280;11176;51.448;6.650;2022-08-21T13:24:26;44970.59;;;-141.29;27.29
22025;BME280;11176;51.448;6.650;2022-08-21T13:27:27;44976.59;;;-141.29;27.36
22025;BME280;11176;51.448;6.650;2022-08-21T13:32:40;44970.59;;;-141.29;27.52
22025;BME280;11176;51.448;6.650;2022-08-21T13:35:19;44972.59;;;-141.29;27.48
22025;BME280;11176;51.448;6.650;2022-08-21T13:37:48;44962.59;;;-141.29;26.58
22025;BME280;11176;51.448;6.650;2022-08-21T13:40:20;44958.59;;;-141.29;26.34
22025;BME280;11176;51.448;6.650;2022-08-21T13:42:48;44958.59;;;-141.29;25.60
22025;BME280;11176;51.448;6.650;2022-08-21T13:45:22;44966.59;;;-141.29;25.45
22025;BME280;11176;51.448;6.650;2022-08-21T13:47:49;44960.59;;;-141.29;26.06
22025;BME280;11176;51.448;6.650;2022-08-21T13:50:18;44958.59;;;-141.29;25.64
22025;BME280;11176;51.448;6.650;2022-08-21T13:52:53;44968.59;;;-141.29;26.12
22025;BME280;11176;51.448;6.650;2022-08-21T13:55:20;44960.59;;;-141.29;26.53
22025;BME280;11176;51.448;6.650;2022-08-21T13:57:59;44970.59;;;-141.29;26.64
22025;BME280;11176;51.448;6.650;2022-08-21T14:00:28;44976.59;;;-141.29;26.93
22025;BME280;11176;51.448;6.650;2022-08-21T14:03:02;44990.59;;;-141.29;26.52